Time;durP1;ratioP1;P1;durP2;ratioP2;P2;SDS_P1;SDS_P2;PMS_P1;PMS_P2;Temp;Humidity;BMP_temperature;BMP_pressure;BME280_temperature;BME280_humidity;BME280_pressure;Samples;Min_cycle;Max_cycle;Signal;HPM_P1;HPM_P2
2023/02/24 00:01:50;;;;;;;;;;;;;;;-6.68;66.32;102520.34;1926485;74;20169;-47
2023/02/24 00:04:17;;;;;;;;;;;;;;;-6.73;66.45;102528.17;1931545;74;20114;-41
2023/02/24 00:06:45;;;;;;;;;;;;;;;-6.76;66.38;102536.94;1893828;76;20479;-41
2023/02/24 00:09:14;;;;;;;;;;;;;;;-6.78;66.39;102533.81;1906456;74;20203;-40
2023/02/24 00:11:44;;;;;;;;;;;;;;;-6.82;66.44;102539.14;1931418;74;20118;-41
2023/02/24 00:14:18;;;;;;;;;;;;;;;-6.83;66.48;102538.23;1940532;74;20375;-44
2023/02/24 00:16:46;;;;;;;;;;;;;;;-6.82;66.47;102539.14;1941373;74;20168;-44
2023/02/24 00:19:15;;;;;;;;;;;;;;;-6.83;66.46;102542.48;1944916;74;20155;-42
2023/02/24 00:21:44;;;;;;;;;;;;;;;-6.84;66.51;102543.25;1947221;74;20444;-41
2023/02/24 00:24:11;;;;;;;;;;;;;;;-6.84;66.50;102547.09;1946181;74;20163;-41
2023/02/24 00:26:39;;;;;;;;;;;;;;;-6.85;66.42;102542.78;1948547;74;20142;-43
2023/02/24 00:29:08;;;;;;;;;;;;;;;-6.86;66.45;102544.84;1945768;71;20117;-43
2023/02/24 00:31:41;;;;;;;;;;;;;;;-6.90;66.76;102531.37;1954977;73;20116;-43
2023/02/24 00:34:06;;;;;;;;;;;;;;;-6.95;66.84;102532.39;1943367;73;20124;-43
2023/02/24 00:36:34;;;;;;;;;;;;;;;-7.01;66.94;102534.55;1951207;74;20109;-44
2023/02/24 00:39:09;;;;;;;;;;;;;;;-7.07;66.96;102531.63;1942894;74;20147;-44
2023/02/24 00:41:41;;;;;;;;;;;;;;;-7.11;66.90;102516.47;1925994;74;20123;-45
2023/02/24 00:44:11;;;;;;;;;;;;;;;-7.13;66.92;102512.93;1930850;74;20104;-44
2023/02/24 00:46:40;;;;;;;;;;;;;;;-7.11;66.96;102516.87;1947621;74;20509;-44
2023/02/24 00:49:09;;;;;;;;;;;;;;;-7.11;66.99;102517.74;1926395;74;20389;-45
2023/02/24 00:51:38;;;;;;;;;;;;;;;-7.12;66.95;102512.13;1940270;74;20142;-45
2023/02/24 00:54:05;;;;;;;;;;;;;;;-7.14;66.96;102514.98;1949255;74;20104;-46
2023/02/24 00:56:34;;;;;;;;;;;;;;;-7.12;67.04;102526.61;1949549;74;20147;-46
2023/02/24 00:59:02;;;;;;;;;;;;;;;-7.13;67.02;102532.13;1947649;74;20104;-45
2023/02/24 01:01:31;;;;;;;;;;;;;;;-7.16;67.19;102531.93;1947542;74;20121;-43
2023/02/24 01:04:04;;;;;;;;;;;;;;;-7.21;67.40;102523.98;1947666;74;20370;-42
2023/02/24 01:06:33;;;;;;;;;;;;;;;-7.24;67.65;102526.75;1926819;74;20112;-44
2023/02/24 01:09:00;;;;;;;;;;;;;;;-7.28;67.77;102516.70;1947024;74;20408;-44
2023/02/24 01:14:18;;;;;;;;;;;;;;;-7.33;68.21;102510.81;1945881;74;20160;-44
2023/02/24 01:16:51;;;;;;;;;;;;;;;-7.37;68.36;102506.77;1949576;74;20358;-45
2023/02/24 01:19:16;;;;;;;;;;;;;;;-7.37;68.29;102510.61;1914822;74;20147;-46
2023/02/24 01:21:52;;;;;;;;;;;;;;;-7.43;68.46;102508.96;1949388;74;20234;-44
2023/02/24 01:24:16;;;;;;;;;;;;;;;-7.45;68.46;102512.19;1930350;74;20437;-45
2023/02/24 01:26:44;;;;;;;;;;;;;;;-7.49;68.52;102503.44;1948359;74;20112;-45
2023/02/24 01:29:12;;;;;;;;;;;;;;;-7.49;68.62;102502.56;1949854;74;20116;-45
2023/02/24 01:31:42;;;;;;;;;;;;;;;-7.48;68.57;102509.46;1949526;73;20112;-44
2023/02/24 01:34:12;;;;;;;;;;;;;;;-7.48;68.56;102502.66;1948974;74;20146;-45
2023/02/24 01:36:45;;;;;;;;;;;;;;;-7.44;68.42;102506.30;1933879;74;20112;-45
2023/02/24 01:39:11;;;;;;;;;;;;;;;-7.46;68.48;102499.80;1923184;74;20222;-47
2023/02/24 01:41:40;;;;;;;;;;;;;;;-7.46;68.46;102495.97;1925251;74;20359;-44
2023/02/24 01:44:09;;;;;;;;;;;;;;;-7.47;68.37;102486.53;1934069;74;20371;-44
2023/02/24 01:46:38;;;;;;;;;;;;;;;-7.55;68.61;102473.64;1944567;74;20143;-44
2023/02/24 01:49:07;;;;;;;;;;;;;;;-7.61;68.73;102477.11;1946431;74;20116;-45
2023/02/24 01:51:36;;;;;;;;;;;;;;;-7.62;68.56;102480.03;1928870;74;20212;-45
2023/02/24 01:54:07;;;;;;;;;;;;;;;-7.63;68.41;102480.84;1929180;74;20139;-46
2023/02/24 01:56:35;;;;;;;;;;;;;;;-7.65;68.39;102478.98;1949334;74;20384;-42
2023/02/24 01:59:04;;;;;;;;;;;;;;;-7.66;68.32;102492.55;1949289;74;20390;-42
2023/02/24 02:01:39;;;;;;;;;;;;;;;-7.67;68.29;102494.60;1949300;74;20112;-41
2023/02/24 02:04:04;;;;;;;;;;;;;;;-7.67;68.30;102494.60;1946269;74;20112;-42
2023/02/24 02:06:32;;;;;;;;;;;;;;;-7.66;68.27;102493.83;1949647;74;20135;-42
2023/02/24 02:09:00;;;;;;;;;;;;;;;-7.66;68.25;102499.83;1948167;74;20117;-42
2023/02/24 02:11:29;;;;;;;;;;;;;;;-7.64;68.25;102492.25;1945345;74;20156;-42
2023/02/24 02:13:59;;;;;;;;;;;;;;;-7.67;68.27;102495.88;1947475;74;20104;-42
2023/02/24 02:16:37;;;;;;;;;;;;;;;-7.70;68.31;102496.98;1951164;74;20143;-42
2023/02/24 02:19:06;;;;;;;;;;;;;;;-7.73;68.37;102495.50;1930356;74;20113;-43
2023/02/24 02:21:54;;;;;;;;;;;;;;;-7.74;68.36;102488.23;1949288;74;20116;-42
2023/02/24 02:24:23;;;;;;;;;;;;;;;-7.77;68.40;102485.06;1950661;73;20109;-44
2023/02/24 02:27:07;;;;;;;;;;;;;;;-7.78;68.46;102493.95;1932995;72;20116;-42
2023/02/24 02:29:46;;;;;;;;;;;;;;;-7.77;68.44;102496.58;1937591;74;20116;-43
2023/02/24 02:32:24;;;;;;;;;;;;;;;-7.73;68.35;102489.11;1924667;73;20186;-42
2023/02/24 02:34:56;;;;;;;;;;;;;;;-7.76;68.36;102485.58;1933323;74;20116;-42
2023/02/24 02:37:25;;;;;;;;;;;;;;;-7.75;68.45;102482.61;1949422;74;20156;-41
2023/02/24 02:39:57;;;;;;;;;;;;;;;-7.73;68.50;102491.67;1948674;74;20163;-41
2023/02/24 02:42:25;;;;;;;;;;;;;;;-7.77;68.75;102491.87;1930525;74;20164;-42
2023/02/24 02:44:55;;;;;;;;;;;;;;;-7.84;68.89;102482.94;1926329;74;20238;-42
2023/02/24 02:47:36;;;;;;;;;;;;;;;-7.81;68.96;102496.30;1925666;74;20117;-42
2023/02/24 02:50:12;;;;;;;;;;;;;;;-7.79;68.81;102490.48;1929795;74;20114;-42
2023/02/24 02:52:44;;;;;;;;;;;;;;;-7.79;69.04;102480.25;1949695;74;20104;-40
2023/02/24 02:55:17;;;;;;;;;;;;;;;-7.75;68.96;102473.66;1949038;74;20100;-41
2023/02/24 02:57:46;;;;;;;;;;;;;;;-7.72;68.92;102476.83;1925538;74;20146;-43
2023/02/24 03:00:20;;;;;;;;;;;;;;;-7.78;69.03;102462.86;1948914;74;20163;-46
2023/02/24 03:02:46;;;;;;;;;;;;;;;-7.81;69.19;102467.77;1946997;74;20104;-45
2023/02/24 03:05:16;;;;;;;;;;;;;;;-7.75;69.11;102469.83;1950617;74;20116;-45
2023/02/24 03:07:45;;;;;;;;;;;;;;;-7.69;69.04;102457.45;1951057;74;20160;-44
2023/02/24 03:10:19;;;;;;;;;;;;;;;-7.60;68.97;102473.73;1949422;74;20160;-42
2023/02/24 03:12:46;;;;;;;;;;;;;;;-7.56;68.79;102482.13;1924511;74;20167;-42
2023/02/24 03:15:15;;;;;;;;;;;;;;;-7.58;68.87;102478.55;1945225;74;20425;-42
2023/02/24 03:17:45;;;;;;;;;;;;;;;-7.61;68.98;102470.30;1949808;74;20172;-38
2023/02/24 03:20:16;;;;;;;;;;;;;;;-7.59;68.90;102466.16;1947427;73;20230;-44
2023/02/24 03:22:45;;;;;;;;;;;;;;;-7.53;68.87;102464.38;1932963;73;20441;-45
2023/02/24 03:25:13;;;;;;;;;;;;;;;-7.52;68.91;102449.91;1932025;73;20167;-42
2023/02/24 03:27:43;;;;;;;;;;;;;;;-7.49;68.85;102453.55;1917598;75;20106;-41
2023/02/24 03:30:16;;;;;;;;;;;;;;;-7.52;68.85;102453.37;1924630;72;20116;-42
2023/02/24 03:32:56;;;;;;;;;;;;;;;-7.56;68.89;102457.82;1952658;71;20167;-41
2023/02/24 03:35:20;;;;;;;;;;;;;;;-7.57;68.89;102445.80;1951314;73;20101;-41
2023/02/24 03:37:49;;;;;;;;;;;;;;;-7.60;69.03;102437.92;1948775;73;20207;-43
2023/02/24 03:40:19;;;;;;;;;;;;;;;-7.57;69.02;102445.80;1954570;73;20112;-47
2023/02/24 03:42:48;;;;;;;;;;;;;;;-7.53;68.93;102436.64;1954590;73;20117;-40
2023/02/24 03:45:17;;;;;;;;;;;;;;;-7.50;68.89;102435.16;1953063;73;20142;-46
2023/02/24 03:47:45;;;;;;;;;;;;;;;-7.55;69.01;102450.62;1955871;72;20120;-43
2023/02/24 03:50:15;;;;;;;;;;;;;;;-7.55;68.97;102446.78;1953110;73;20100;-40
2023/02/24 03:52:46;;;;;;;;;;;;;;;-7.50;68.87;102439.41;1952391;73;20465;-44
2023/02/24 03:55:18;;;;;;;;;;;;;;;-7.49;68.80;102436.03;1936358;73;20189;-44
2023/02/24 03:58:01;;;;;;;;;;;;;;;-7.51;68.76;102440.18;1951926;73;20105;-40
2023/02/24 04:00:37;;;;;;;;;;;;;;;-7.51;68.74;102447.86;1958643;72;20416;-41
2023/02/24 04:03:24;;;;;;;;;;;;;;;-7.51;68.67;102443.61;1952857;73;20143;-41
2023/02/24 04:06:03;;;;;;;;;;;;;;;-7.50;68.67;102430.45;1953078;73;20113;-41
2023/02/24 04:08:33;;;;;;;;;;;;;;;-7.47;68.71;102430.25;1952443;73;20148;-41
2023/02/24 04:11:04;;;;;;;;;;;;;;;-7.45;68.79;102425.19;1952646;73;20139;-41
2023/02/24 04:13:46;;;;;;;;;;;;;;;-7.42;68.94;102419.87;1951632;73;20113;-41
2023/02/24 04:16:17;;;;;;;;;;;;;;;-7.39;68.87;102414.95;1952942;73;20137;-41
2023/02/24 04:18:46;;;;;;;;;;;;;;;-7.35;68.74;102428.81;1952864;73;20402;-41
2023/02/24 04:21:17;;;;;;;;;;;;;;;-7.32;68.68;102422.98;1952850;73;20408;-41
2023/02/24 04:23:46;;;;;;;;;;;;;;;-7.31;68.70;102423.49;1952855;73;20120;-41
2023/02/24 04:26:15;;;;;;;;;;;;;;;-7.36;68.74;102423.19;1952987;73;20194;-41
2023/02/24 04:28:47;;;;;;;;;;;;;;;-7.38;68.67;102428.25;1953044;73;20186;-41
2023/02/24 04:31:17;;;;;;;;;;;;;;;-7.35;68.75;102433.06;1952912;73;20120;-42
2023/02/24 04:33:52;;;;;;;;;;;;;;;-7.34;68.76;102438.65;1942730;72;20418;-41
2023/02/24 04:36:16;;;;;;;;;;;;;;;-7.33;68.69;102435.31;1941816;74;20125;-42
2023/02/24 04:38:44;;;;;;;;;;;;;;;-7.29;68.64;102430.86;1942792;74;20159;-41
2023/02/24 04:41:19;;;;;;;;;;;;;;;-7.25;68.67;102431.16;1942728;74;20117;-41
2023/02/24 04:43:42;;;;;;;;;;;;;;;-7.18;68.64;102438.80;1942670;74;20100;-41
2023/02/24 04:46:12;;;;;;;;;;;;;;;-7.12;68.65;102451.95;1942810;74;20117;-40
2023/02/24 04:48:40;;;;;;;;;;;;;;;-7.09;68.75;102439.34;1942632;74;20100;-41
2023/02/24 04:51:09;;;;;;;;;;;;;;;-7.01;68.71;102442.36;1942689;74;20139;-41
2023/02/24 04:53:37;;;;;;;;;;;;;;;-6.95;68.65;102445.69;1942642;74;20143;-41
2023/02/24 04:56:10;;;;;;;;;;;;;;;-6.87;68.58;102448.32;1942660;74;20151;-41
2023/02/24 04:58:40;;;;;;;;;;;;;;;-6.82;68.53;102445.64;1941954;74;20112;-41
2023/02/24 05:01:13;;;;;;;;;;;;;;;-6.74;68.38;102440.97;1942727;74;20108;-40
2023/02/24 05:03:41;;;;;;;;;;;;;;;-6.67;68.27;102445.66;1942062;74;20109;-40
2023/02/24 05:06:09;;;;;;;;;;;;;;;-6.60;68.24;102455.48;1942770;74;20116;-41
2023/02/24 05:08:37;;;;;;;;;;;;;;;-6.51;68.32;102449.98;1942515;74;20116;-41
2023/02/24 05:11:05;;;;;;;;;;;;;;;-6.42;68.32;102449.23;1942675;74;20105;-42
2023/02/24 05:13:36;;;;;;;;;;;;;;;-6.32;68.27;102443.85;1942664;74;20117;-41
2023/02/24 05:16:07;;;;;;;;;;;;;;;-6.29;68.15;102445.69;1942739;74;20109;-41
2023/02/24 05:18:41;;;;;;;;;;;;;;;-6.23;68.15;102453.75;1942677;74;20116;-41
2023/02/24 05:23:53;;;;;;;;;;;;;;;-6.07;68.15;102458.05;1942696;74;20116;-41
2023/02/24 05:26:30;;;;;;;;;;;;;;;-5.97;68.15;102461.63;1942579;74;20144;-41
2023/02/24 05:28:53;;;;;;;;;;;;;;;-5.86;68.03;102459.23;1940471;74;20165;-40
2023/02/24 05:31:22;;;;;;;;;;;;;;;-5.72;67.95;102452.69;1942630;74;20096;-41
2023/02/24 05:33:53;;;;;;;;;;;;;;;-5.62;67.90;102457.53;1950544;72;20120;-41
2023/02/24 05:36:21;;;;;;;;;;;;;;;-5.49;67.89;102459.09;1952839;73;20120;-41
2023/02/24 05:38:54;;;;;;;;;;;;;;;-5.36;67.80;102451.64;1952736;73;20241;-41
2023/02/24 05:41:20;;;;;;;;;;;;;;;-5.24;67.69;102449.33;1952932;73;20116;-41
2023/02/24 05:43:53;;;;;;;;;;;;;;;-5.05;67.68;102443.87;1952855;73;20143;-41
2023/02/24 05:46:30;;;;;;;;;;;;;;;-4.88;67.72;102444.33;1952962;73;20117;-41
2023/02/24 05:49:02;;;;;;;;;;;;;;;-4.66;67.68;102437.31;1953014;73;20123;-40
2023/02/24 05:51:34;;;;;;;;;;;;;;;-4.38;67.74;102444.24;1952847;73;20379;-41
2023/02/24 05:54:03;;;;;;;;;;;;;;;-4.25;67.74;102444.44;1952845;73;20113;-40
2023/02/24 05:56:32;;;;;;;;;;;;;;;-4.06;67.73;102431.64;1952805;73;20116;-40
2023/02/24 05:59:01;;;;;;;;;;;;;;;-3.78;67.61;102425.23;1953020;73;20101;-42
2023/02/24 06:01:30;;;;;;;;;;;;;;;-3.52;67.39;102433.77;1952889;73;20155;-41
2023/02/24 06:04:04;;;;;;;;;;;;;;;-3.18;67.26;102433.99;1952884;73;20371;-41
2023/02/24 06:06:29;;;;;;;;;;;;;;;-2.96;66.85;102428.50;1952968;73;20136;-41
2023/02/24 06:09:00;;;;;;;;;;;;;;;-2.75;66.74;102428.15;1952817;73;20112;-41
2023/02/24 06:11:27;;;;;;;;;;;;;;;-2.60;66.73;102429.59;1953023;73;20176;-41
2023/02/24 06:13:56;;;;;;;;;;;;;;;-2.64;66.68;102435.44;1952898;73;20429;-40
2023/02/24 06:16:24;;;;;;;;;;;;;;;-2.63;67.09;102424.33;1952760;73;20234;-40
2023/02/24 06:18:55;;;;;;;;;;;;;;;-2.41;67.09;102415.36;1952798;73;20104;-40
2023/02/24 06:21:22;;;;;;;;;;;;;;;-2.23;66.83;102407.88;1952787;73;20116;-40
2023/02/24 06:23:49;;;;;;;;;;;;;;;-2.00;66.53;102403.66;1952800;73;20154;-40
2023/02/24 06:26:18;;;;;;;;;;;;;;;-1.85;66.17;102400.78;1952913;73;20113;-40
2023/02/24 06:28:46;;;;;;;;;;;;;;;-1.82;65.54;102393.16;1952818;73;20116;-40
2023/02/24 06:31:14;;;;;;;;;;;;;;;-1.79;65.33;102394.55;1952795;73;20175;-41
2023/02/24 06:33:42;;;;;;;;;;;;;;;-1.67;65.31;102396.32;1952698;72;20117;-41
2023/02/24 06:36:10;;;;;;;;;;;;;;;-1.48;64.88;102389.26;1952729;73;20155;-41
2023/02/24 06:38:40;;;;;;;;;;;;;;;-1.10;64.02;102382.89;1952859;73;20108;-41
2023/02/24 06:41:11;;;;;;;;;;;;;;;-0.71;63.52;102389.39;1952953;73;20143;-41
2023/02/24 06:43:42;;;;;;;;;;;;;;;-0.21;63.56;102379.80;1952939;73;20128;-41
2023/02/24 06:46:11;;;;;;;;;;;;;;;0.42;63.34;102357.52;1953048;73;20143;-41
2023/02/24 06:48:39;;;;;;;;;;;;;;;1.12;62.82;102348.17;1952101;73;20365;-40
2023/02/24 06:51:09;;;;;;;;;;;;;;;1.58;62.11;102345.84;1953034;73;20374;-40
2023/02/24 06:53:41;;;;;;;;;;;;;;;1.86;61.38;102358.65;1952978;73;20144;-40
2023/02/24 06:56:13;;;;;;;;;;;;;;;1.81;60.68;102360.26;1952888;73;20117;-40
2023/02/24 06:58:37;;;;;;;;;;;;;;;1.57;59.95;102360.95;1952969;73;20112;-40
2023/02/24 07:01:05;;;;;;;;;;;;;;;1.38;60.12;102348.83;1952935;73;20413;-40
2023/02/24 07:03:39;;;;;;;;;;;;;;;1.90;60.22;102339.69;1953155;73;20386;-43
2023/02/24 07:06:19;;;;;;;;;;;;;;;2.89;59.48;102333.86;1953029;73;20112;-43
2023/02/24 07:08:40;;;;;;;;;;;;;;;3.34;58.23;102322.52;1953244;73;20402;-43
2023/02/24 07:11:07;;;;;;;;;;;;;;;3.41;56.40;102320.86;1953001;73;20409;-43
2023/02/24 07:13:35;;;;;;;;;;;;;;;3.37;56.32;102329.05;1952902;73;20167;-42
2023/02/24 07:16:05;;;;;;;;;;;;;;;3.48;56.69;102327.92;1952884;73;20109;-42
2023/02/24 07:18:39;;;;;;;;;;;;;;;3.71;55.92;102315.27;1952917;73;20117;-42
2023/02/24 07:21:11;;;;;;;;;;;;;;;4.11;54.27;102307.97;1952906;73;20186;-42
2023/02/24 07:23:35;;;;;;;;;;;;;;;4.15;54.34;102324.13;1952155;73;20156;-42
2023/02/24 07:26:05;;;;;;;;;;;;;;;4.45;53.22;102315.78;1952898;73;20116;-43
2023/02/24 07:28:33;;;;;;;;;;;;;;;4.72;52.22;102299.11;1952940;73;20155;-42
2023/02/24 07:31:03;;;;;;;;;;;;;;;4.99;52.46;102312.42;1952885;73;20113;-42
2023/02/24 07:33:33;;;;;;;;;;;;;;;6.07;52.39;102307.11;1951424;72;20116;-42
2023/02/24 07:36:07;;;;;;;;;;;;;;;6.38;50.75;102295.02;1942821;74;20366;-43
2023/02/24 07:38:30;;;;;;;;;;;;;;;6.16;49.38;102294.97;1942725;74;20147;-43
2023/02/24 07:40:58;;;;;;;;;;;;;;;5.92;49.04;102310.08;1942739;74;20116;-43
2023/02/24 07:43:26;;;;;;;;;;;;;;;5.53;48.08;102310.69;1942912;74;20160;-43
2023/02/24 07:45:53;;;;;;;;;;;;;;;5.30;47.88;102315.31;1942737;73;20105;-43
2023/02/24 07:48:21;;;;;;;;;;;;;;;5.02;48.41;102312.46;1942836;74;20140;-41
2023/02/24 07:50:49;;;;;;;;;;;;;;;5.20;48.53;102301.72;1942853;74;20371;-43
2023/02/24 07:53:17;;;;;;;;;;;;;;;5.48;47.45;102313.69;1942834;74;20370;-43
2023/02/24 07:55:45;;;;;;;;;;;;;;;6.00;47.19;102293.15;1942807;74;20425;-43
2023/02/24 07:58:14;;;;;;;;;;;;;;;6.69;46.82;102280.27;1942783;74;20117;-43
2023/02/24 08:00:58;;;;;;;;;;;;;;;7.17;46.80;102281.63;1942685;74;20186;-42
2023/02/24 08:03:18;;;;;;;;;;;;;;;7.67;45.97;102278.09;1942602;74;20109;-43
2023/02/24 08:05:46;;;;;;;;;;;;;;;8.35;45.23;102277.81;1942698;74;20202;-42
2023/02/24 08:08:19;;;;;;;;;;;;;;;8.45;44.10;102273.45;1942819;74;20101;-43
2023/02/24 08:10:43;;;;;;;;;;;;;;;8.19;43.76;102266.95;1942669;74;20120;-41
2023/02/24 08:13:10;;;;;;;;;;;;;;;8.12;44.13;102268.75;1942774;74;20109;-40
2023/02/24 08:15:38;;;;;;;;;;;;;;;7.89;44.83;102274.08;1942702;74;20101;-40
2023/02/24 08:18:06;;;;;;;;;;;;;;;8.31;43.53;102268.22;1942769;74;20456;-40
2023/02/24 08:20:51;;;;;;;;;;;;;;;9.22;43.73;102273.76;1942647;74;20143;-40
2023/02/24 08:23:09;;;;;;;;;;;;;;;9.81;43.52;102269.20;1942533;74;20168;-41
2023/02/24 08:25:37;;;;;;;;;;;;;;;9.39;44.55;102277.99;1942709;74;20113;-41
2023/02/24 08:28:10;;;;;;;;;;;;;;;8.60;44.57;102269.41;1942674;74;20104;-41
2023/02/24 08:30:39;;;;;;;;;;;;;;;8.60;44.72;102279.05;1942634;74;20194;-41
2023/02/24 08:33:10;;;;;;;;;;;;;;;9.47;43.71;102262.55;1942819;74;20105;-41
2023/02/24 08:35:43;;;;;;;;;;;;;;;10.21;42.85;102266.09;1942618;72;20121;-41
2023/02/24 08:38:13;;;;;;;;;;;;;;;10.57;42.41;102257.30;1942569;74;20192;-41
2023/02/24 08:40:48;;;;;;;;;;;;;;;11.19;41.96;102246.20;1942753;74;20379;-44
2023/02/24 08:45:51;;;;;;;;;;;;;;;12.68;40.83;102235.66;1921826;74;20367;-40
2023/02/24 08:48:31;;;;;;;;;;;;;;;13.17;40.27;102235.33;1942587;74;20944;-40
2023/02/24 08:50:56;;;;;;;;;;;;;;;13.58;39.99;102234.73;1942609;74;20113;-40
2023/02/24 08:53:30;;;;;;;;;;;;;;;13.68;39.86;102224.28;1942708;74;20104;-40
2023/02/24 08:55:53;;;;;;;;;;;;;;;13.94;40.38;102227.95;1942754;74;20113;-40
2023/02/24 08:58:25;;;;;;;;;;;;;;;14.57;38.96;102217.66;1942640;74;20355;-40
2023/02/24 09:00:52;;;;;;;;;;;;;;;14.70;38.33;102218.12;1942484;74;20147;-40
2023/02/24 09:03:28;;;;;;;;;;;;;;;14.63;37.76;102209.50;1942679;74;20390;-40
2023/02/24 09:06:03;;;;;;;;;;;;;;;14.56;37.04;102211.05;1942615;74;20172;-41
2023/02/24 09:08:33;;;;;;;;;;;;;;;14.44;36.95;102217.16;1942801;74;20363;-41
2023/02/24 09:11:06;;;;;;;;;;;;;;;14.98;37.19;102208.78;1942758;74;20117;-41
2023/02/24 09:13:33;;;;;;;;;;;;;;;15.59;37.67;102194.27;1942572;74;20101;-41
2023/02/24 09:16:03;;;;;;;;;;;;;;;15.83;37.86;102200.00;1942676;74;20143;-41
2023/02/24 09:18:37;;;;;;;;;;;;;;;15.95;36.76;102201.78;1941461;74;20117;-41
2023/02/24 09:23:47;;;;;;;;;;;;;;;15.80;36.33;102188.63;1942803;74;20183;-41
2023/02/24 09:26:14;;;;;;;;;;;;;;;16.08;35.69;102177.80;1942667;74;20139;-40
2023/02/24 09:28:53;;;;;;;;;;;;;;;16.34;35.80;102170.58;1942657;74;20135;-40
2023/02/24 09:31:17;;;;;;;;;;;;;;;16.20;35.79;102158.72;1942689;74;20395;-41
2023/02/24 09:33:49;;;;;;;;;;;;;;;16.42;35.90;102164.97;1942767;74;20105;-41
2023/02/24 09:36:19;;;;;;;;;;;;;;;16.65;36.03;102158.21;1949775;72;20104;-40
2023/02/24 09:39:57;;;;;;;;;;;;;;;16.75;35.03;102152.06;1952546;73;20121;-40
2023/02/24 09:41:30;;;;;;;;;;;;;;;16.79;35.50;102143.02;1941558;73;20400;-40
2023/02/24 09:43:58;;;;;;;;;;;;;;;16.65;35.66;102144.06;1951911;73;20120;-40
2023/02/24 09:46:22;;;;;;;;;;;;;;;16.46;35.25;102137.33;1953133;73;20117;-40
2023/02/24 09:49:04;;;;;;;;;;;;;;;16.38;34.94;102131.86;1952756;73;20100;-40
2023/02/24 09:51:28;;;;;;;;;;;;;;;15.88;34.57;102129.45;1950400;73;20171;-40
2023/02/24 09:54:00;;;;;;;;;;;;;;;15.89;35.15;102117.03;1952937;73;20421;-40
2023/02/24 09:56:35;;;;;;;;;;;;;;;16.54;32.16;102113.92;1952798;73;20142;-40
2023/02/24 09:59:10;;;;;;;;;;;;;;;16.58;35.13;102110.20;1952793;73;20359;-40
2023/02/24 10:01:41;;;;;;;;;;;;;;;16.77;35.74;102104.50;1952694;73;20164;-40
2023/02/24 10:04:20;;;;;;;;;;;;;;;17.22;35.67;102095.91;1952535;73;20151;-41
2023/02/24 10:06:54;;;;;;;;;;;;;;;17.66;35.68;102086.32;1952500;73;20108;-39
2023/02/24 10:09:25;;;;;;;;;;;;;;;17.99;35.71;102083.00;1952820;73;20121;-39
2023/02/24 10:11:53;;;;;;;;;;;;;;;17.94;35.53;102081.03;1952757;73;20112;-39
2023/02/24 10:14:22;;;;;;;;;;;;;;;18.04;35.31;102073.47;1951620;73;20147;-39
2023/02/24 10:17:21;;;;;;;;;;;;;;;18.16;35.19;102061.32;1952285;72;20100;-40
2023/02/24 10:19:23;;;;;;;;;;;;;;;17.82;35.12;102064.30;1953610;73;20116;-40
2023/02/24 10:21:59;;;;;;;;;;;;;;;17.78;35.10;102051.59;1952313;73;20607;-40
2023/02/24 10:24:33;;;;;;;;;;;;;;;17.65;33.26;102044.66;1951620;73;20113;-40
2023/02/24 10:27:14;;;;;;;;;;;;;;;17.30;33.96;102052.95;1952938;73;20112;-40
2023/02/24 10:29:46;;;;;;;;;;;;;;;17.47;34.28;102034.89;1952887;73;20150;-41
2023/02/24 10:32:16;;;;;;;;;;;;;;;17.75;34.27;102031.27;1951068;73;20120;-41
2023/02/24 10:34:46;;;;;;;;;;;;;;;17.66;34.28;102023.73;1952827;73;20117;-41
2023/02/24 10:37:18;;;;;;;;;;;;;;;17.42;33.50;102013.79;1943917;73;20105;-41
2023/02/24 10:39:48;;;;;;;;;;;;;;;16.79;33.52;102007.36;1942708;74;20108;-41
2023/02/24 10:42:16;;;;;;;;;;;;;;;16.94;34.20;102006.69;1942826;74;20115;-40
2023/02/24 10:44:53;;;;;;;;;;;;;;;17.15;34.33;101999.97;1941523;74;20118;-41
2023/02/24 10:47:31;;;;;;;;;;;;;;;17.08;34.18;102001.19;1942785;74;20214;-41
2023/02/24 10:50:00;;;;;;;;;;;;;;;16.69;33.67;101995.39;1939014;74;20113;-40
2023/02/24 10:53:25;;;;;;;;;;;;;;;16.26;33.83;101984.86;1942765;74;20112;-40
2023/02/24 10:55:26;;;;;;;;;;;;;;;16.02;33.54;101979.65;1928317;74;20418;-40
2023/02/24 10:57:46;;;;;;;;;;;;;;;15.80;33.78;101975.70;1942371;74;20112;-40
2023/02/24 11:00:29;;;;;;;;;;;;;;;15.71;34.06;101965.42;1942902;74;20384;-40
2023/02/24 11:05:37;;;;;;;;;;;;;;;15.70;34.26;101957.08;1914469;74;20112;-39
2023/02/24 11:08:35;;;;;;;;;;;;;;;15.42;33.82;101956.87;1942630;74;20128;-41
2023/02/24 11:11:05;;;;;;;;;;;;;;;15.29;34.17;101956.08;1938539;74;20117;-40
2023/02/24 11:18:48;;;;;;;;;;;;;;;15.22;34.53;101945.71;1942717;74;20161;-41
2023/02/24 11:21:17;;;;;;;;;;;;;;;15.35;34.32;101942.58;1942747;74;20147;-41
2023/02/24 11:23:49;;;;;;;;;;;;;;;14.94;34.03;101939.30;1942747;74;20097;-41
2023/02/24 11:26:18;;;;;;;;;;;;;;;14.53;33.93;101935.49;1942733;74;20568;-41
2023/02/24 11:29:05;;;;;;;;;;;;;;;14.43;34.20;101933.65;1942616;74;20116;-41
2023/02/24 11:31:34;;;;;;;;;;;;;;;14.25;34.15;101936.02;1939758;74;20179;-41
2023/02/24 11:34:19;;;;;;;;;;;;;;;14.15;34.33;101939.92;1941303;74;20112;-39
2023/02/24 11:37:05;;;;;;;;;;;;;;;14.25;34.76;101939.99;1942790;72;20117;-41
2023/02/24 11:39:41;;;;;;;;;;;;;;;14.19;34.67;101930.95;1942899;74;20195;-39
2023/02/24 11:42:10;;;;;;;;;;;;;;;14.37;35.15;101932.55;1942136;74;20172;-40
2023/02/24 11:44:45;;;;;;;;;;;;;;;14.40;32.50;101932.42;1942781;74;20160;-39
2023/02/24 11:47:14;;;;;;;;;;;;;;;13.61;29.38;101931.59;1942364;74;20159;-40
2023/02/24 11:49:52;;;;;;;;;;;;;;;13.23;29.69;101921.77;1942582;74;20105;-40
2023/02/24 11:52:21;;;;;;;;;;;;;;;12.75;28.22;101926.70;1942839;74;20117;-41
2023/02/24 11:54:50;;;;;;;;;;;;;;;12.43;28.20;101928.95;1942616;74;20412;-41
2023/02/24 11:57:19;;;;;;;;;;;;;;;12.08;28.69;101914.94;1942757;74;20160;-41
2023/02/24 11:59:54;;;;;;;;;;;;;;;11.76;28.73;101913.94;1942819;74;20113;-41
2023/02/24 12:02:24;;;;;;;;;;;;;;;11.37;29.32;101911.84;1928550;74;20172;-40
2023/02/24 12:05:08;;;;;;;;;;;;;;;11.10;30.09;101905.42;1941165;74;20155;-40
2023/02/24 12:07:37;;;;;;;;;;;;;;;10.73;30.20;101916.77;1942719;74;20110;-40
2023/02/24 12:10:08;;;;;;;;;;;;;;;9.93;30.09;101900.72;1942741;74;20143;-40
2023/02/24 12:12:37;;;;;;;;;;;;;;;9.42;30.29;101903.31;1941837;74;20176;-40
2023/02/24 12:15:07;;;;;;;;;;;;;;;8.99;31.21;101902.19;1942694;74;20116;-40
2023/02/24 12:17:36;;;;;;;;;;;;;;;8.56;31.75;101907.11;1942227;74;20104;-39
2023/02/24 12:20:06;;;;;;;;;;;;;;;8.24;32.02;101903.08;1942659;74;20104;-39
2023/02/24 12:22:44;;;;;;;;;;;;;;;8.01;32.51;101898.94;1942826;74;20143;-40
2023/02/24 12:25:13;;;;;;;;;;;;;;;7.88;32.80;101906.51;1942622;74;20104;-40
2023/02/24 12:27:42;;;;;;;;;;;;;;;7.85;33.74;101901.28;1942917;74;20367;-40
2023/02/24 12:30:32;;;;;;;;;;;;;;;7.78;33.90;101899.59;1941659;74;20112;-40
2023/02/24 12:32:54;;;;;;;;;;;;;;;7.71;34.03;101908.83;1941001;74;20109;-40
2023/02/24 12:35:23;;;;;;;;;;;;;;;7.61;34.62;101897.13;1942121;74;20108;-40
2023/02/24 12:37:57;;;;;;;;;;;;;;;7.55;34.78;101881.00;1948177;73;20183;-40
2023/02/24 12:40:32;;;;;;;;;;;;;;;7.46;35.42;101899.42;1952798;73;20146;-40
2023/02/24 12:43:01;;;;;;;;;;;;;;;7.29;36.47;101893.86;1913581;73;20116;-40
2023/02/24 12:45:30;;;;;;;;;;;;;;;7.25;37.19;101892.56;1952160;73;20124;-40
2023/02/24 12:48:00;;;;;;;;;;;;;;;7.18;36.65;101907.47;1951915;73;20171;-40
2023/02/24 12:50:29;;;;;;;;;;;;;;;7.13;37.36;101890.46;1952448;73;20172;-40
2023/02/24 12:53:05;;;;;;;;;;;;;;;7.21;37.95;101882.58;1952886;73;20100;-40
2023/02/24 12:55:46;;;;;;;;;;;;;;;7.20;38.09;101883.44;1952907;73;20112;-40
2023/02/24 12:58:22;;;;;;;;;;;;;;;7.12;38.58;101878.27;1952218;72;20147;-41
2023/02/24 13:01:08;;;;;;;;;;;;;;;7.01;39.09;101877.87;1952901;73;20191;-41
2023/02/24 13:03:38;;;;;;;;;;;;;;;7.04;39.18;101871.33;1952965;73;20142;-39
2023/02/24 13:06:12;;;;;;;;;;;;;;;7.03;39.40;101863.05;1952675;73;20112;-39
2023/02/24 13:08:41;;;;;;;;;;;;;;;6.93;39.91;101856.56;1952698;73;20198;-40
2023/02/24 13:11:12;;;;;;;;;;;;;;;6.86;40.18;101852.66;1952799;73;20139;-40
2023/02/24 13:13:41;;;;;;;;;;;;;;;6.81;40.23;101842.23;1952846;73;20116;-40
2023/02/24 13:16:11;;;;;;;;;;;;;;;6.85;40.41;101842.63;1951060;73;20175;-40